sensor_id;sensor_type;location;lat;lon;timestamp;P1;durP1;ratioP1;P2;durP2;ratioP2
6955;SDS011;50345;51.136;16.886;2023-09-18T00:01:50;9.10;;;7.70;;
6955;SDS011;50345;51.136;16.886;2023-09-18T00:04:16;7.63;;;6.93;;
6955;SDS011;50345;51.136;16.886;2023-09-18T00:06:42;9.13;;;8.20;;
6955;SDS011;50345;51.136;16.886;2023-09-18T00:09:08;8.90;;;8.20;;
6955;SDS011;50345;51.136;16.886;2023-09-18T00:11:36;8.57;;;7.83;;
6955;SDS011;50345;51.136;16.886;2023-09-18T00:14:07;8.70;;;8.00;;
6955;SDS011;50345;51.136;16.886;2023-09-18T00:16:34;8.40;;;7.60;;
6955;SDS011;50345;51.136;16.886;2023-09-18T00:19:00;8.23;;;7.47;;
6955;SDS011;50345;51.136;16.886;2023-09-18T00:21:27;9.55;;;8.55;;
6955;SDS011;50345;51.136;16.886;2023-09-18T00:23:55;8.75;;;7.90;;
6955;SDS011;50345;51.136;16.886;2023-09-18T00:26:23;8.20;;;7.37;;
6955;SDS011;50345;51.136;16.886;2023-09-18T00:28:49;9.73;;;9.02;;
6955;SDS011;50345;51.136;16.886;2023-09-18T00:31:15;8.38;;;7.68;;
6955;SDS011;50345;51.136;16.886;2023-09-18T00:33:41;8.97;;;8.07;;
6955;SDS011;50345;51.136;16.886;2023-09-18T00:36:07;7.80;;;7.18;;
6955;SDS011;50345;51.136;16.886;2023-09-18T00:38:33;9.15;;;8.45;;
6955;SDS011;50345;51.136;16.886;2023-09-18T00:40:59;9.97;;;9.07;;
6955;SDS011;50345;51.136;16.886;2023-09-18T00:43:25;8.40;;;7.70;;
6955;SDS011;50345;51.136;16.886;2023-09-18T00:45:51;8.50;;;7.70;;
6955;SDS011;50345;51.136;16.886;2023-09-18T00:48:17;10.10;;;8.43;;
6955;SDS011;50345;51.136;16.886;2023-09-18T00:50:44;7.95;;;7.35;;
6955;SDS011;50345;51.136;16.886;2023-09-18T00:53:11;8.93;;;8.23;;
6955;SDS011;50345;51.136;16.886;2023-09-18T00:55:38;8.27;;;7.57;;
6955;SDS011;50345;51.136;16.886;2023-09-18T00:58:05;8.52;;;7.72;;
6955;SDS011;50345;51.136;16.886;2023-09-18T01:00:31;9.25;;;8.40;;
6955;SDS011;50345;51.136;16.886;2023-09-18T01:02:57;11.57;;;7.60;;
6955;SDS011;50345;51.136;16.886;2023-09-18T01:05:25;8.73;;;8.00;;
6955;SDS011;50345;51.136;16.886;2023-09-18T01:07:51;9.07;;;8.00;;
6955;SDS011;50345;51.136;16.886;2023-09-18T01:10:17;6.97;;;6.40;;
6955;SDS011;50345;51.136;16.886;2023-09-18T01:15:17;7.60;;;7.00;;
6955;SDS011;50345;51.136;16.886;2023-09-18T01:17:45;10.32;;;7.40;;
6955;SDS011;50345;51.136;16.886;2023-09-18T01:20:12;8.25;;;7.55;;
6955;SDS011;50345;51.136;16.886;2023-09-18T01:22:38;9.13;;;8.32;;
6955;SDS011;50345;51.136;16.886;2023-09-18T01:25:04;8.00;;;7.30;;
6955;SDS011;50345;51.136;16.886;2023-09-18T01:27:31;8.68;;;7.97;;
6955;SDS011;50345;51.136;16.886;2023-09-18T01:29:57;9.90;;;8.95;;
6955;SDS011;50345;51.136;16.886;2023-09-18T01:32:24;9.35;;;8.55;;
6955;SDS011;50345;51.136;16.886;2023-09-18T01:34:53;8.50;;;7.70;;
6955;SDS011;50345;51.136;16.886;2023-09-18T01:37:20;8.82;;;7.45;;
6955;SDS011;50345;51.136;16.886;2023-09-18T01:39:47;9.13;;;8.20;;
6955;SDS011;50345;51.136;16.886;2023-09-18T01:42:14;9.18;;;7.40;;
6955;SDS011;50345;51.136;16.886;2023-09-18T01:44:40;8.77;;;7.97;;
6955;SDS011;50345;51.136;16.886;2023-09-18T01:47:07;9.35;;;8.65;;
6955;SDS011;50345;51.136;16.886;2023-09-18T01:49:37;9.32;;;8.57;;
6955;SDS011;50345;51.136;16.886;2023-09-18T01:52:04;8.13;;;7.40;;
6955;SDS011;50345;51.136;16.886;2023-09-18T01:54:30;8.85;;;8.15;;
6955;SDS011;50345;51.136;16.886;2023-09-18T01:56:57;8.93;;;8.07;;
6955;SDS011;50345;51.136;16.886;2023-09-18T01:59:23;9.25;;;8.55;;
6955;SDS011;50345;51.136;16.886;2023-09-18T02:01:50;8.00;;;7.30;;
6955;SDS011;50345;51.136;16.886;2023-09-18T02:04:16;9.52;;;7.60;;
6955;SDS011;50345;51.136;16.886;2023-09-18T02:06:42;8.30;;;7.47;;
6955;SDS011;50345;51.136;16.886;2023-09-18T02:09:08;8.82;;;7.40;;
6955;SDS011;50345;51.136;16.886;2023-09-18T02:11:41;8.60;;;7.90;;
6955;SDS011;50345;51.136;16.886;2023-09-18T02:14:08;9.30;;;8.50;;
6955;SDS011;50345;51.136;16.886;2023-09-18T02:16:34;9.45;;;8.32;;
6955;SDS011;50345;51.136;16.886;2023-09-18T02:19:01;9.70;;;9.00;;
6955;SDS011;50345;51.136;16.886;2023-09-18T02:21:27;8.40;;;7.70;;
6955;SDS011;50345;51.136;16.886;2023-09-18T02:23:54;9.13;;;8.43;;
6955;SDS011;50345;51.136;16.886;2023-09-18T02:26:20;9.13;;;8.07;;
6955;SDS011;50345;51.136;16.886;2023-09-18T02:28:46;7.55;;;6.97;;
6955;SDS011;50345;51.136;16.886;2023-09-18T02:31:12;9.27;;;8.40;;
6955;SDS011;50345;51.136;16.886;2023-09-18T02:33:39;9.23;;;8.52;;
6955;SDS011;50345;51.136;16.886;2023-09-18T02:36:05;9.35;;;8.55;;
6955;SDS011;50345;51.136;16.886;2023-09-18T02:38:31;7.07;;;6.57;;
6955;SDS011;50345;51.136;16.886;2023-09-18T02:40:58;8.55;;;7.65;;
6955;SDS011;50345;51.136;16.886;2023-09-18T02:43:24;7.63;;;7.13;;
6955;SDS011;50345;51.136;16.886;2023-09-18T02:45:50;7.95;;;7.35;;
6955;SDS011;50345;51.136;16.886;2023-09-18T02:48:16;10.15;;;8.38;;
6955;SDS011;50345;51.136;16.886;2023-09-18T02:50:43;9.40;;;8.60;;
6955;SDS011;50345;51.136;16.886;2023-09-18T02:53:16;8.35;;;7.70;;
6955;SDS011;50345;51.136;16.886;2023-09-18T02:55:42;8.30;;;7.50;;
6955;SDS011;50345;51.136;16.886;2023-09-18T02:58:08;7.97;;;7.17;;
6955;SDS011;50345;51.136;16.886;2023-09-18T03:00:35;8.18;;;7.38;;
6955;SDS011;50345;51.136;16.886;2023-09-18T03:03:07;8.40;;;7.53;;
6955;SDS011;50345;51.136;16.886;2023-09-18T03:05:33;8.10;;;7.50;;
6955;SDS011;50345;51.136;16.886;2023-09-18T03:07:59;9.00;;;8.30;;
6955;SDS011;50345;51.136;16.886;2023-09-18T03:10:25;10.13;;;7.65;;
6955;SDS011;50345;51.136;16.886;2023-09-18T03:12:51;9.23;;;7.82;;
6955;SDS011;50345;51.136;16.886;2023-09-18T03:15:17;11.90;;;6.78;;
6955;SDS011;50345;51.136;16.886;2023-09-18T03:17:43;9.55;;;8.68;;
6955;SDS011;50345;51.136;16.886;2023-09-18T03:20:10;9.10;;;8.00;;
6955;SDS011;50345;51.136;16.886;2023-09-18T03:22:36;9.07;;;8.23;;
6955;SDS011;50345;51.136;16.886;2023-09-18T03:25:02;9.50;;;8.73;;
6955;SDS011;50345;51.136;16.886;2023-09-18T03:27:28;9.68;;;8.98;;
6955;SDS011;50345;51.136;16.886;2023-09-18T03:29:56;8.98;;;8.27;;
6955;SDS011;50345;51.136;16.886;2023-09-18T03:32:22;9.27;;;8.48;;
6955;SDS011;50345;51.136;16.886;2023-09-18T03:34:52;9.48;;;8.57;;
6955;SDS011;50345;51.136;16.886;2023-09-18T03:37:18;9.20;;;8.30;;
6955;SDS011;50345;51.136;16.886;2023-09-18T03:39:44;9.52;;;8.82;;
6955;SDS011;50345;51.136;16.886;2023-09-18T03:42:10;12.85;;;9.05;;
6955;SDS011;50345;51.136;16.886;2023-09-18T03:44:36;9.68;;;8.70;;
6955;SDS011;50345;51.136;16.886;2023-09-18T03:47:02;10.20;;;9.10;;
6955;SDS011;50345;51.136;16.886;2023-09-18T03:49:29;10.43;;;9.60;;
6955;SDS011;50345;51.136;16.886;2023-09-18T03:51:55;11.68;;;9.50;;
6955;SDS011;50345;51.136;16.886;2023-09-18T03:54:21;10.15;;;9.35;;
6955;SDS011;50345;51.136;16.886;2023-09-18T03:56:47;10.30;;;9.60;;
6955;SDS011;50345;51.136;16.886;2023-09-18T03:59:13;9.68;;;8.88;;
6955;SDS011;50345;51.136;16.886;2023-09-18T04:01:39;9.95;;;8.95;;
6955;SDS011;50345;51.136;16.886;2023-09-18T04:04:05;10.70;;;9.52;;
6955;SDS011;50345;51.136;16.886;2023-09-18T04:06:40;10.02;;;9.23;;
6955;SDS011;50345;51.136;16.886;2023-09-18T04:09:06;10.57;;;9.57;;
6955;SDS011;50345;51.136;16.886;2023-09-18T04:11:32;12.43;;;9.53;;
6955;SDS011;50345;51.136;16.886;2023-09-18T04:13:58;11.25;;;10.05;;
6955;SDS011;50345;51.136;16.886;2023-09-18T04:16:25;10.68;;;9.73;;
6955;SDS011;50345;51.136;16.886;2023-09-18T04:18:52;10.55;;;9.70;;
6955;SDS011;50345;51.136;16.886;2023-09-18T04:21:19;10.25;;;9.35;;
6955;SDS011;50345;51.136;16.886;2023-09-18T04:23:46;10.50;;;9.57;;
6955;SDS011;50345;51.136;16.886;2023-09-18T04:26:12;10.13;;;9.20;;
6955;SDS011;50345;51.136;16.886;2023-09-18T04:28:41;10.13;;;8.93;;
6955;SDS011;50345;51.136;16.886;2023-09-18T04:31:07;10.93;;;9.88;;
6955;SDS011;50345;51.136;16.886;2023-09-18T04:33:34;11.10;;;10.00;;
6955;SDS011;50345;51.136;16.886;2023-09-18T04:36:00;10.77;;;9.87;;
6955;SDS011;50345;51.136;16.886;2023-09-18T04:38:26;10.27;;;9.47;;
6955;SDS011;50345;51.136;16.886;2023-09-18T04:40:59;10.23;;;9.43;;
6955;SDS011;50345;51.136;16.886;2023-09-18T04:43:25;10.18;;;9.38;;
6955;SDS011;50345;51.136;16.886;2023-09-18T04:45:51;10.48;;;9.45;;
6955;SDS011;50345;51.136;16.886;2023-09-18T04:48:17;12.02;;;10.10;;
6955;SDS011;50345;51.136;16.886;2023-09-18T04:50:43;12.30;;;11.10;;
6955;SDS011;50345;51.136;16.886;2023-09-18T04:53:09;13.30;;;12.10;;
6955;SDS011;50345;51.136;16.886;2023-09-18T04:55:35;12.43;;;11.53;;
6955;SDS011;50345;51.136;16.886;2023-09-18T04:58:03;11.38;;;10.27;;
6955;SDS011;50345;51.136;16.886;2023-09-18T05:00:29;12.20;;;11.20;;
6955;SDS011;50345;51.136;16.886;2023-09-18T05:02:57;11.50;;;10.60;;
6955;SDS011;50345;51.136;16.886;2023-09-18T05:05:25;11.60;;;10.38;;
6955;SDS011;50345;51.136;16.886;2023-09-18T05:07:51;12.73;;;11.53;;
6955;SDS011;50345;51.136;16.886;2023-09-18T05:10:17;13.30;;;12.10;;
6955;SDS011;50345;51.136;16.886;2023-09-18T05:12:43;11.40;;;10.30;;
6955;SDS011;50345;51.136;16.886;2023-09-18T05:15:09;11.48;;;10.35;;
6955;SDS011;50345;51.136;16.886;2023-09-18T05:17:44;11.15;;;10.10;;
6955;SDS011;50345;51.136;16.886;2023-09-18T05:20:17;11.70;;;10.75;;
6955;SDS011;50345;51.136;16.886;2023-09-18T05:22:43;13.85;;;12.40;;
6955;SDS011;50345;51.136;16.886;2023-09-18T05:25:09;12.25;;;11.20;;
6955;SDS011;50345;51.136;16.886;2023-09-18T05:27:36;13.25;;;11.93;;
6955;SDS011;50345;51.136;16.886;2023-09-18T05:30:10;11.68;;;10.65;;
6955;SDS011;50345;51.136;16.886;2023-09-18T05:32:37;15.02;;;11.57;;
6955;SDS011;50345;51.136;16.886;2023-09-18T05:35:03;10.93;;;10.02;;
6955;SDS011;50345;51.136;16.886;2023-09-18T05:37:31;11.98;;;10.70;;
6955;SDS011;50345;51.136;16.886;2023-09-18T05:39:57;12.13;;;10.82;;
6955;SDS011;50345;51.136;16.886;2023-09-18T05:42:23;18.13;;;12.50;;
6955;SDS011;50345;51.136;16.886;2023-09-18T05:44:49;12.10;;;10.88;;
6955;SDS011;50345;51.136;16.886;2023-09-18T05:47:16;11.82;;;10.63;;
6955;SDS011;50345;51.136;16.886;2023-09-18T05:49:42;11.30;;;10.00;;
6955;SDS011;50345;51.136;16.886;2023-09-18T05:52:08;12.67;;;11.37;;
6955;SDS011;50345;51.136;16.886;2023-09-18T05:54:34;17.80;;;10.77;;
6955;SDS011;50345;51.136;16.886;2023-09-18T05:57:01;13.13;;;11.77;;
6955;SDS011;50345;51.136;16.886;2023-09-18T05:59:27;13.40;;;12.10;;
6955;SDS011;50345;51.136;16.886;2023-09-18T06:01:53;16.63;;;11.93;;
6955;SDS011;50345;51.136;16.886;2023-09-18T06:04:19;15.37;;;10.43;;
6955;SDS011;50345;51.136;16.886;2023-09-18T06:06:46;12.82;;;10.55;;
6955;SDS011;50345;51.136;16.886;2023-09-18T06:09:12;14.50;;;11.10;;
6955;SDS011;50345;51.136;16.886;2023-09-18T06:11:38;11.83;;;10.57;;
6955;SDS011;50345;51.136;16.886;2023-09-18T06:14:04;13.13;;;11.53;;
6955;SDS011;50345;51.136;16.886;2023-09-18T06:16:30;21.37;;;11.10;;
6955;SDS011;50345;51.136;16.886;2023-09-18T06:18:56;12.27;;;11.10;;
6955;SDS011;50345;51.136;16.886;2023-09-18T06:21:21;12.10;;;10.87;;
6955;SDS011;50345;51.136;16.886;2023-09-18T06:23:47;13.20;;;11.10;;
6955;SDS011;50345;51.136;16.886;2023-09-18T06:26:12;20.67;;;12.47;;
6955;SDS011;50345;51.136;16.886;2023-09-18T06:28:39;12.17;;;10.97;;
6955;SDS011;50345;51.136;16.886;2023-09-18T06:31:05;19.30;;;12.57;;
6955;SDS011;50345;51.136;16.886;2023-09-18T06:33:30;11.13;;;10.13;;
6955;SDS011;50345;51.136;16.886;2023-09-18T06:35:56;18.90;;;11.30;;
6955;SDS011;50345;51.136;16.886;2023-09-18T06:38:22;12.60;;;11.40;;
6955;SDS011;50345;51.136;16.886;2023-09-18T06:40:47;13.93;;;11.20;;
6955;SDS011;50345;51.136;16.886;2023-09-18T06:43:13;12.13;;;11.00;;
6955;SDS011;50345;51.136;16.886;2023-09-18T06:45:39;20.03;;;11.97;;
6955;SDS011;50345;51.136;16.886;2023-09-18T06:48:05;13.43;;;12.10;;
6955;SDS011;50345;51.136;16.886;2023-09-18T06:50:30;11.17;;;10.17;;
6955;SDS011;50345;51.136;16.886;2023-09-18T06:52:56;12.13;;;10.10;;
6955;SDS011;50345;51.136;16.886;2023-09-18T06:55:22;10.83;;;9.93;;
6955;SDS011;50345;51.136;16.886;2023-09-18T06:57:47;11.77;;;10.70;;
6955;SDS011;50345;51.136;16.886;2023-09-18T07:00:15;12.03;;;10.30;;
6955;SDS011;50345;51.136;16.886;2023-09-18T07:02:43;10.23;;;9.23;;
6955;SDS011;50345;51.136;16.886;2023-09-18T07:05:09;14.63;;;10.77;;
6955;SDS011;50345;51.136;16.886;2023-09-18T07:07:34;15.97;;;10.30;;
6955;SDS011;50345;51.136;16.886;2023-09-18T07:10:00;15.03;;;10.20;;
6955;SDS011;50345;51.136;16.886;2023-09-18T07:12:25;10.53;;;9.70;;
6955;SDS011;50345;51.136;16.886;2023-09-18T07:14:51;12.90;;;9.13;;
6955;SDS011;50345;51.136;16.886;2023-09-18T07:17:17;12.73;;;10.27;;
6955;SDS011;50345;51.136;16.886;2023-09-18T07:19:43;13.53;;;9.97;;
6955;SDS011;50345;51.136;16.886;2023-09-18T07:22:08;14.17;;;10.03;;
6955;SDS011;50345;51.136;16.886;2023-09-18T07:24:34;10.13;;;9.23;;
6955;SDS011;50345;51.136;16.886;2023-09-18T07:26:59;9.93;;;9.10;;
6955;SDS011;50345;51.136;16.886;2023-09-18T07:29:25;10.80;;;9.70;;
6955;SDS011;50345;51.136;16.886;2023-09-18T07:31:51;9.43;;;8.63;;
6955;SDS011;50345;51.136;16.886;2023-09-18T07:34:17;12.73;;;9.87;;
6955;SDS011;50345;51.136;16.886;2023-09-18T07:36:43;10.77;;;9.70;;
6955;SDS011;50345;51.136;16.886;2023-09-18T07:39:11;10.00;;;9.00;;
6955;SDS011;50345;51.136;16.886;2023-09-18T07:41:37;10.80;;;9.03;;
6955;SDS011;50345;51.136;16.886;2023-09-18T07:44:04;9.10;;;8.23;;
6955;SDS011;50345;51.136;16.886;2023-09-18T07:46:30;14.07;;;9.50;;
6955;SDS011;50345;51.136;16.886;2023-09-18T07:48:56;10.80;;;9.90;;
6955;SDS011;50345;51.136;16.886;2023-09-18T07:51:22;9.70;;;8.70;;
6955;SDS011;50345;51.136;16.886;2023-09-18T07:53:48;13.97;;;8.93;;
6955;SDS011;50345;51.136;16.886;2023-09-18T07:56:14;19.40;;;9.40;;
6955;SDS011;50345;51.136;16.886;2023-09-18T07:58:39;14.03;;;9.80;;
6955;SDS011;50345;51.136;16.886;2023-09-18T08:01:06;11.67;;;8.93;;
6955;SDS011;50345;51.136;16.886;2023-09-18T08:03:33;16.10;;;10.03;;
6955;SDS011;50345;51.136;16.886;2023-09-18T08:05:59;11.87;;;8.70;;
6955;SDS011;50345;51.136;16.886;2023-09-18T08:08:26;10.67;;;9.57;;
6955;SDS011;50345;51.136;16.886;2023-09-18T08:10:52;11.73;;;8.90;;
6955;SDS011;50345;51.136;16.886;2023-09-18T08:13:18;10.40;;;8.83;;
6955;SDS011;50345;51.136;16.886;2023-09-18T08:15:45;10.90;;;9.83;;
6955;SDS011;50345;51.136;16.886;2023-09-18T08:18:12;10.10;;;9.20;;
6955;SDS011;50345;51.136;16.886;2023-09-18T08:20:42;11.80;;;8.63;;
6955;SDS011;50345;51.136;16.886;2023-09-18T08:23:08;10.13;;;9.17;;
6955;SDS011;50345;51.136;16.886;2023-09-18T08:25:34;10.00;;;9.20;;
6955;SDS011;50345;51.136;16.886;2023-09-18T08:28:00;10.20;;;9.20;;
6955;SDS011;50345;51.136;16.886;2023-09-18T08:30:27;10.00;;;9.20;;
6955;SDS011;50345;51.136;16.886;2023-09-18T08:32:52;9.30;;;8.60;;
6955;SDS011;50345;51.136;16.886;2023-09-18T08:35:19;10.10;;;9.30;;
6955;SDS011;50345;51.136;16.886;2023-09-18T08:37:45;10.13;;;9.43;;
6955;SDS011;50345;51.136;16.886;2023-09-18T08:40:12;9.67;;;8.97;;
6955;SDS011;50345;51.136;16.886;2023-09-18T08:42:39;10.77;;;9.70;;
6955;SDS011;50345;51.136;16.886;2023-09-18T08:45:07;10.40;;;9.60;;
6955;SDS011;50345;51.136;16.886;2023-09-18T08:47:34;11.77;;;10.20;;
6955;SDS011;50345;51.136;16.886;2023-09-18T08:50:01;12.47;;;11.27;;
6955;SDS011;50345;51.136;16.886;2023-09-18T08:52:27;11.90;;;10.80;;
6955;SDS011;50345;51.136;16.886;2023-09-18T08:54:54;12.37;;;11.37;;
6955;SDS011;50345;51.136;16.886;2023-09-18T08:57:21;17.67;;;10.57;;
6955;SDS011;50345;51.136;16.886;2023-09-18T08:59:47;12.30;;;11.00;;
6955;SDS011;50345;51.136;16.886;2023-09-18T09:02:14;11.40;;;10.60;;
6955;SDS011;50345;51.136;16.886;2023-09-18T09:04:40;11.20;;;10.20;;
6955;SDS011;50345;51.136;16.886;2023-09-18T09:07:06;13.07;;;11.97;;
6955;SDS011;50345;51.136;16.886;2023-09-18T09:09:33;17.13;;;12.00;;
6955;SDS011;50345;51.136;16.886;2023-09-18T09:11:59;13.33;;;11.67;;
6955;SDS011;50345;51.136;16.886;2023-09-18T09:14:25;12.80;;;10.43;;
6955;SDS011;50345;51.136;16.886;2023-09-18T09:16:55;12.30;;;11.03;;
6955;SDS011;50345;51.136;16.886;2023-09-18T09:19:29;14.07;;;12.67;;
6955;SDS011;50345;51.136;16.886;2023-09-18T09:22:02;13.30;;;12.20;;
6955;SDS011;50345;51.136;16.886;2023-09-18T09:24:41;12.43;;;11.33;;
6955;SDS011;50345;51.136;16.886;2023-09-18T09:27:09;12.03;;;10.90;;
6955;SDS011;50345;51.136;16.886;2023-09-18T09:29:35;12.00;;;11.00;;
6955;SDS011;50345;51.136;16.886;2023-09-18T09:32:17;12.93;;;11.60;;
6955;SDS011;50345;51.136;16.886;2023-09-18T09:34:44;12.93;;;11.70;;
6955;SDS011;50345;51.136;16.886;2023-09-18T09:37:11;12.47;;;11.40;;
6955;SDS011;50345;51.136;16.886;2023-09-18T09:39:50;12.70;;;11.50;;
6955;SDS011;50345;51.136;16.886;2023-09-18T09:42:17;12.90;;;11.90;;
6955;SDS011;50345;51.136;16.886;2023-09-18T09:44:48;12.10;;;10.90;;
6955;SDS011;50345;51.136;16.886;2023-09-18T09:47:20;13.77;;;10.03;;
6955;SDS011;50345;51.136;16.886;2023-09-18T09:49:47;11.93;;;10.97;;
6955;SDS011;50345;51.136;16.886;2023-09-18T09:52:17;11.43;;;10.57;;
6955;SDS011;50345;51.136;16.886;2023-09-18T09:54:46;11.47;;;10.47;;
6955;SDS011;50345;51.136;16.886;2023-09-18T09:57:12;12.23;;;11.20;;
6955;SDS011;50345;51.136;16.886;2023-09-18T09:59:38;16.53;;;10.87;;
6955;SDS011;50345;51.136;16.886;2023-09-18T10:02:10;12.33;;;11.13;;
6955;SDS011;50345;51.136;16.886;2023-09-18T10:04:44;11.00;;;10.13;;
6955;SDS011;50345;51.136;16.886;2023-09-18T10:07:13;11.77;;;10.87;;
6955;SDS011;50345;51.136;16.886;2023-09-18T10:09:41;13.03;;;11.97;;
6955;SDS011;50345;51.136;16.886;2023-09-18T10:12:11;13.17;;;11.97;;
6955;SDS011;50345;51.136;16.886;2023-09-18T10:14:38;9.70;;;9.00;;
6955;SDS011;50345;51.136;16.886;2023-09-18T10:17:06;11.80;;;10.70;;
6955;SDS011;50345;51.136;16.886;2023-09-18T10:25:13;12.07;;;10.77;;
6955;SDS011;50345;51.136;16.886;2023-09-18T10:27:43;11.50;;;10.60;;
6955;SDS011;50345;51.136;16.886;2023-09-18T10:30:23;10.80;;;10.10;;
6955;SDS011;50345;51.136;16.886;2023-09-18T10:32:50;11.33;;;10.33;;
6955;SDS011;50345;51.136;16.886;2023-09-18T10:35:17;12.17;;;11.07;;
6955;SDS011;50345;51.136;16.886;2023-09-18T10:37:45;11.00;;;10.20;;
6955;SDS011;50345;51.136;16.886;2023-09-18T10:40:11;10.80;;;9.27;;
6955;SDS011;50345;51.136;16.886;2023-09-18T10:42:38;10.20;;;9.43;;
6955;SDS011;50345;51.136;16.886;2023-09-18T10:45:05;10.33;;;9.40;;
6955;SDS011;50345;51.136;16.886;2023-09-18T10:47:35;10.70;;;10.00;;
6955;SDS011;50345;51.136;16.886;2023-09-18T10:50:03;9.97;;;9.27;;
6955;SDS011;50345;51.136;16.886;2023-09-18T10:52:29;11.20;;;9.97;;
6955;SDS011;50345;51.136;16.886;2023-09-18T10:54:55;10.87;;;9.87;;
6955;SDS011;50345;51.136;16.886;2023-09-18T10:57:21;11.27;;;10.13;;
6955;SDS011;50345;51.136;16.886;2023-09-18T10:59:47;11.90;;;11.00;;
6955;SDS011;50345;51.136;16.886;2023-09-18T11:02:16;10.80;;;9.70;;
6955;SDS011;50345;51.136;16.886;2023-09-18T11:04:43;10.57;;;9.77;;
6955;SDS011;50345;51.136;16.886;2023-09-18T11:07:19;11.73;;;10.70;;
6955;SDS011;50345;51.136;16.886;2023-09-18T11:09:45;10.70;;;10.00;;
6955;SDS011;50345;51.136;16.886;2023-09-18T11:12:11;11.80;;;10.80;;
6955;SDS011;50345;51.136;16.886;2023-09-18T11:22:40;10.57;;;9.73;;
6955;SDS011;50345;51.136;16.886;2023-09-18T11:28:08;9.17;;;8.47;;
6955;SDS011;50345;51.136;16.886;2023-09-18T11:30:47;10.30;;;9.17;;
6955;SDS011;50345;51.136;16.886;2023-09-18T11:33:15;10.73;;;9.93;;
6955;SDS011;50345;51.136;16.886;2023-09-18T11:36:09;10.00;;;8.97;;
6955;SDS011;50345;51.136;16.886;2023-09-18T11:41:28;10.77;;;8.30;;
6955;SDS011;50345;51.136;16.886;2023-09-18T11:46:44;8.50;;;7.70;;
6955;SDS011;50345;51.136;16.886;2023-09-18T11:49:11;7.20;;;6.80;;
6955;SDS011;50345;51.136;16.886;2023-09-18T11:51:37;8.30;;;7.50;;
6955;SDS011;50345;51.136;16.886;2023-09-18T11:54:03;7.60;;;6.90;;
6955;SDS011;50345;51.136;16.886;2023-09-18T11:56:35;7.40;;;6.80;;
6955;SDS011;50345;51.136;16.886;2023-09-18T11:59:01;5.97;;;5.43;;
6955;SDS011;50345;51.136;16.886;2023-09-18T12:01:30;7.40;;;6.80;;
6955;SDS011;50345;51.136;16.886;2023-09-18T12:04:03;6.70;;;6.20;;
6955;SDS011;50345;51.136;16.886;2023-09-18T12:06:38;7.03;;;6.53;;
6955;SDS011;50345;51.136;16.886;2023-09-18T12:09:05;7.40;;;6.70;;
6955;SDS011;50345;51.136;16.886;2023-09-18T12:11:32;7.07;;;6.47;;
6955;SDS011;50345;51.136;16.886;2023-09-18T12:14:04;9.93;;;6.57;;
6955;SDS011;50345;51.136;16.886;2023-09-18T12:16:30;7.70;;;7.10;;
6955;SDS011;50345;51.136;16.886;2023-09-18T12:18:56;6.03;;;5.63;;
6955;SDS011;50345;51.136;16.886;2023-09-18T12:21:22;8.20;;;7.10;;
6955;SDS011;50345;51.136;16.886;2023-09-18T12:23:48;6.40;;;5.90;;
6955;SDS011;50345;51.136;16.886;2023-09-18T12:26:15;7.17;;;6.47;;
6955;SDS011;50345;51.136;16.886;2023-09-18T12:28:44;7.47;;;5.90;;
6955;SDS011;50345;51.136;16.886;2023-09-18T12:31:10;8.53;;;6.30;;
6955;SDS011;50345;51.136;16.886;2023-09-18T12:33:37;5.93;;;5.43;;
6955;SDS011;50345;51.136;16.886;2023-09-18T12:36:04;7.40;;;5.77;;
6955;SDS011;50345;51.136;16.886;2023-09-18T12:38:31;8.07;;;6.80;;
6955;SDS011;50345;51.136;16.886;2023-09-18T12:40:57;6.53;;;6.13;;
6955;SDS011;50345;51.136;16.886;2023-09-18T12:43:32;7.57;;;6.67;;
6955;SDS011;50345;51.136;16.886;2023-09-18T12:46:01;7.57;;;6.30;;
6955;SDS011;50345;51.136;16.886;2023-09-18T12:48:29;7.63;;;6.70;;
6955;SDS011;50345;51.136;16.886;2023-09-18T12:50:54;8.80;;;6.10;;
6955;SDS011;50345;51.136;16.886;2023-09-18T12:53:21;10.37;;;6.50;;
6955;SDS011;50345;51.136;16.886;2023-09-18T12:55:48;9.40;;;5.83;;
6955;SDS011;50345;51.136;16.886;2023-09-18T12:58:18;7.43;;;6.60;;
6955;SDS011;50345;51.136;16.886;2023-09-18T13:00:45;8.13;;;7.33;;
6955;SDS011;50345;51.136;16.886;2023-09-18T13:03:14;7.47;;;6.67;;
6955;SDS011;50345;51.136;16.886;2023-09-18T13:05:40;9.93;;;6.67;;
6955;SDS011;50345;51.136;16.886;2023-09-18T13:08:06;6.40;;;5.73;;
6955;SDS011;50345;51.136;16.886;2023-09-18T13:10:44;7.33;;;6.50;;
6955;SDS011;50345;51.136;16.886;2023-09-18T13:13:20;7.47;;;6.73;;
6955;SDS011;50345;51.136;16.886;2023-09-18T13:15:47;9.53;;;5.80;;
6955;SDS011;50345;51.136;16.886;2023-09-18T13:18:14;6.53;;;6.03;;
6955;SDS011;50345;51.136;16.886;2023-09-18T13:20:40;7.97;;;6.67;;
6955;SDS011;50345;51.136;16.886;2023-09-18T13:23:07;7.87;;;6.57;;
6955;SDS011;50345;51.136;16.886;2023-09-18T13:25:33;6.50;;;5.97;;
6955;SDS011;50345;51.136;16.886;2023-09-18T13:28:03;6.60;;;5.77;;
6955;SDS011;50345;51.136;16.886;2023-09-18T13:30:30;8.50;;;6.50;;
6955;SDS011;50345;51.136;16.886;2023-09-18T13:33:02;6.60;;;5.83;;
6955;SDS011;50345;51.136;16.886;2023-09-18T13:35:31;6.77;;;6.37;;
6955;SDS011;50345;51.136;16.886;2023-09-18T13:37:57;7.90;;;7.30;;
6955;SDS011;50345;51.136;16.886;2023-09-18T13:40:23;5.90;;;5.50;;
6955;SDS011;50345;51.136;16.886;2023-09-18T13:42:48;9.40;;;6.33;;
6955;SDS011;50345;51.136;16.886;2023-09-18T13:45:14;6.80;;;6.20;;
6955;SDS011;50345;51.136;16.886;2023-09-18T13:47:41;7.20;;;6.53;;
6955;SDS011;50345;51.136;16.886;2023-09-18T13:50:07;9.23;;;5.93;;
6955;SDS011;50345;51.136;16.886;2023-09-18T13:52:34;7.93;;;7.07;;
6955;SDS011;50345;51.136;16.886;2023-09-18T13:55:01;9.63;;;6.40;;
6955;SDS011;50345;51.136;16.886;2023-09-18T13:57:34;7.13;;;6.47;;
6955;SDS011;50345;51.136;16.886;2023-09-18T14:00:00;6.77;;;6.10;;
6955;SDS011;50345;51.136;16.886;2023-09-18T14:02:30;6.83;;;6.10;;
6955;SDS011;50345;51.136;16.886;2023-09-18T14:04:56;7.77;;;7.17;;
6955;SDS011;50345;51.136;16.886;2023-09-18T14:07:22;7.30;;;6.57;;
6955;SDS011;50345;51.136;16.886;2023-09-18T14:09:48;7.23;;;6.47;;
6955;SDS011;50345;51.136;16.886;2023-09-18T14:12:15;7.80;;;6.80;;
6955;SDS011;50345;51.136;16.886;2023-09-18T14:14:41;6.90;;;6.27;;
6955;SDS011;50345;51.136;16.886;2023-09-18T14:17:08;7.57;;;7.07;;
6955;SDS011;50345;51.136;16.886;2023-09-18T14:19:34;8.60;;;7.70;;
6955;SDS011;50345;51.136;16.886;2023-09-18T14:22:03;7.93;;;7.23;;
6955;SDS011;50345;51.136;16.886;2023-09-18T14:24:30;7.30;;;6.50;;
6955;SDS011;50345;51.136;16.886;2023-09-18T14:26:56;7.53;;;6.83;;
6955;SDS011;50345;51.136;16.886;2023-09-18T14:29:22;9.73;;;7.50;;
6955;SDS011;50345;51.136;16.886;2023-09-18T14:31:48;8.07;;;6.67;;
6955;SDS011;50345;51.136;16.886;2023-09-18T14:34:14;6.97;;;6.50;;
6955;SDS011;50345;51.136;16.886;2023-09-18T14:36:40;7.27;;;6.67;;
6955;SDS011;50345;51.136;16.886;2023-09-18T14:39:06;10.60;;;6.20;;
6955;SDS011;50345;51.136;16.886;2023-09-18T14:41:35;11.37;;;7.67;;
6955;SDS011;50345;51.136;16.886;2023-09-18T14:44:01;7.47;;;6.87;;
6955;SDS011;50345;51.136;16.886;2023-09-18T14:46:28;7.90;;;6.47;;
6955;SDS011;50345;51.136;16.886;2023-09-18T14:48:54;7.57;;;6.97;;
6955;SDS011;50345;51.136;16.886;2023-09-18T14:51:20;7.30;;;6.70;;
6955;SDS011;50345;51.136;16.886;2023-09-18T14:53:45;7.30;;;6.60;;
6955;SDS011;50345;51.136;16.886;2023-09-18T14:56:11;6.90;;;6.30;;
6955;SDS011;50345;51.136;16.886;2023-09-18T14:58:37;7.40;;;6.90;;
6955;SDS011;50345;51.136;16.886;2023-09-18T15:01:02;7.80;;;7.27;;